メインページ
METAR-TAF:

METAR-TAF

空港 :

ポンペイ島, ミクロネシア

ポンペイ国際空港

緯度: 06-59N, 経度: 158-12E, 海抜: 2m

現時点の気象観測

当レポートは11時間24分前の04:55(UTC)に作成
東/北東の風 14kt
気温 31°C
湿度 66%
気圧 1008 hPa
視程: 24.1km
高度1700ftの千切れ雲あり, 塔状積雲.
高度30000ftの千切れ雲あり

METAR: PTPN 230455Z 07014KT 15SM BKN017TCU BKN300 31/24 A2977 TCU SE-W LAST

時間: 03:19 (16:19 UTC)

予報

当レポートは16時間54分前の23:25(UTC)に作成
予報は23日の 00時(UTC)から 23日の 24時(UTC)まで有効
東/北東の風 10kt
視程: 10km
高度1800ftの雲は散在している

TAF: PTPN 222325Z 2300/2324 06010KT P6SM SCT018

4,000以上の空港の気象観測と天気予報(METAR報とTAF報)

利用可能な観測所は地図上に黄色い丸と赤い丸で示す。

丸の上にカーソルを重ねると観測所名を参照できる。

次にクリックすると気象観測と天気予報を参照できる。

マップの切り替え:黒色「×」印の緑ボタンをクリックして拡大、「-」印の緑ボタンをクリックして縮小、緑色の三角印をクリックして隣りの地図に切り替え


METAR-TAF: